sensor_id;sensor_type;location;lat;lon;timestamp;P1;durP1;ratioP1;P2;durP2;ratioP2
2748;SDS011;1382;52.142;11.618;2023-06-01T00:01:05;5.57;;;2.83;;
2748;SDS011;1382;52.142;11.618;2023-06-01T00:03:31;5.37;;;2.53;;
2748;SDS011;1382;52.142;11.618;2023-06-01T00:05:58;4.97;;;2.43;;
2748;SDS011;1382;52.142;11.618;2023-06-01T00:08:25;6.20;;;2.87;;
2748;SDS011;1382;52.142;11.618;2023-06-01T00:10:52;4.70;;;2.20;;
2748;SDS011;1382;52.142;11.618;2023-06-01T00:13:20;3.80;;;2.57;;
2748;SDS011;1382;52.142;11.618;2023-06-01T00:15:46;5.70;;;2.13;;
2748;SDS011;1382;52.142;11.618;2023-06-01T00:18:13;4.20;;;3.20;;
2748;SDS011;1382;52.142;11.618;2023-06-01T00:20:40;9.90;;;3.07;;
2748;SDS011;1382;52.142;11.618;2023-06-01T00:23:07;3.90;;;2.90;;
2748;SDS011;1382;52.142;11.618;2023-06-01T00:25:34;2.80;;;1.80;;
2748;SDS011;1382;52.142;11.618;2023-06-01T00:28:00;4.30;;;2.40;;
2748;SDS011;1382;52.142;11.618;2023-06-01T00:30:28;4.53;;;2.17;;
2748;SDS011;1382;52.142;11.618;2023-06-01T00:32:55;3.57;;;2.53;;
2748;SDS011;1382;52.142;11.618;2023-06-01T00:35:22;2.67;;;2.43;;
2748;SDS011;1382;52.142;11.618;2023-06-01T00:37:49;5.30;;;2.83;;
2748;SDS011;1382;52.142;11.618;2023-06-01T00:40:16;11.60;;;3.60;;
2748;SDS011;1382;52.142;11.618;2023-06-01T00:42:43;6.20;;;2.80;;
2748;SDS011;1382;52.142;11.618;2023-06-01T00:45:09;5.23;;;3.17;;
2748;SDS011;1382;52.142;11.618;2023-06-01T00:47:39;6.93;;;2.70;;
2748;SDS011;1382;52.142;11.618;2023-06-01T00:50:08;6.60;;;3.40;;
2748;SDS011;1382;52.142;11.618;2023-06-01T00:52:37;6.90;;;3.63;;
2748;SDS011;1382;52.142;11.618;2023-06-01T00:55:05;5.80;;;4.50;;
2748;SDS011;1382;52.142;11.618;2023-06-01T00:57:32;4.53;;;3.53;;
2748;SDS011;1382;52.142;11.618;2023-06-01T00:59:59;5.97;;;3.87;;
2748;SDS011;1382;52.142;11.618;2023-06-01T01:02:29;9.03;;;3.70;;
2748;SDS011;1382;52.142;11.618;2023-06-01T01:04:57;6.30;;;4.47;;
2748;SDS011;1382;52.142;11.618;2023-06-01T01:07:25;6.70;;;3.73;;
2748;SDS011;1382;52.142;11.618;2023-06-01T01:09:58;4.33;;;3.93;;
2748;SDS011;1382;52.142;11.618;2023-06-01T01:12:33;4.87;;;3.67;;
2748;SDS011;1382;52.142;11.618;2023-06-01T01:15:08;8.43;;;4.47;;
2748;SDS011;1382;52.142;11.618;2023-06-01T01:17:44;7.60;;;4.30;;
2748;SDS011;1382;52.142;11.618;2023-06-01T01:20:15;5.00;;;4.00;;
2748;SDS011;1382;52.142;11.618;2023-06-01T01:25:44;5.30;;;3.90;;
2748;SDS011;1382;52.142;11.618;2023-06-01T01:28:37;6.63;;;3.87;;
2748;SDS011;1382;52.142;11.618;2023-06-01T01:31:08;7.57;;;4.00;;
2748;SDS011;1382;52.142;11.618;2023-06-01T01:33:37;9.13;;;4.03;;
2748;SDS011;1382;52.142;11.618;2023-06-01T01:36:06;9.70;;;3.50;;
2748;SDS011;1382;52.142;11.618;2023-06-01T01:38:34;5.73;;;3.40;;
2748;SDS011;1382;52.142;11.618;2023-06-01T01:41:02;11.50;;;4.70;;
2748;SDS011;1382;52.142;11.618;2023-06-01T01:43:29;10.17;;;4.90;;
2748;SDS011;1382;52.142;11.618;2023-06-01T01:45:59;10.00;;;4.33;;
2748;SDS011;1382;52.142;11.618;2023-06-01T01:48:34;7.10;;;4.30;;
2748;SDS011;1382;52.142;11.618;2023-06-01T01:51:14;4.80;;;3.80;;
2748;SDS011;1382;52.142;11.618;2023-06-01T01:53:45;9.73;;;4.97;;
2748;SDS011;1382;52.142;11.618;2023-06-01T01:56:16;8.80;;;4.80;;
2748;SDS011;1382;52.142;11.618;2023-06-01T01:58:45;12.90;;;4.90;;
2748;SDS011;1382;52.142;11.618;2023-06-01T02:01:15;8.10;;;4.70;;
2748;SDS011;1382;52.142;11.618;2023-06-01T02:03:42;15.13;;;4.70;;
2748;SDS011;1382;52.142;11.618;2023-06-01T02:06:09;10.87;;;5.10;;
2748;SDS011;1382;52.142;11.618;2023-06-01T02:08:36;4.43;;;3.73;;
2748;SDS011;1382;52.142;11.618;2023-06-01T02:11:03;6.20;;;4.00;;
2748;SDS011;1382;52.142;11.618;2023-06-01T02:13:30;7.07;;;3.80;;
2748;SDS011;1382;52.142;11.618;2023-06-01T02:15:57;10.77;;;5.67;;
2748;SDS011;1382;52.142;11.618;2023-06-01T02:18:25;8.17;;;4.60;;
2748;SDS011;1382;52.142;11.618;2023-06-01T02:20:52;7.90;;;4.37;;
2748;SDS011;1382;52.142;11.618;2023-06-01T02:23:18;8.17;;;4.70;;
2748;SDS011;1382;52.142;11.618;2023-06-01T02:25:45;6.30;;;4.50;;
2748;SDS011;1382;52.142;11.618;2023-06-01T02:28:12;12.40;;;5.50;;
2748;SDS011;1382;52.142;11.618;2023-06-01T02:30:39;8.40;;;4.23;;
2748;SDS011;1382;52.142;11.618;2023-06-01T02:33:06;8.50;;;4.97;;
2748;SDS011;1382;52.142;11.618;2023-06-01T02:35:34;13.47;;;4.73;;
2748;SDS011;1382;52.142;11.618;2023-06-01T02:38:00;12.97;;;5.37;;
2748;SDS011;1382;52.142;11.618;2023-06-01T02:40:27;11.93;;;4.73;;
2748;SDS011;1382;52.142;11.618;2023-06-01T02:42:54;11.33;;;5.10;;
2748;SDS011;1382;52.142;11.618;2023-06-01T02:45:21;11.00;;;4.83;;
2748;SDS011;1382;52.142;11.618;2023-06-01T02:47:48;8.33;;;5.30;;
2748;SDS011;1382;52.142;11.618;2023-06-01T02:50:14;12.03;;;5.30;;
2748;SDS011;1382;52.142;11.618;2023-06-01T02:52:42;9.17;;;5.40;;
2748;SDS011;1382;52.142;11.618;2023-06-01T02:55:09;12.27;;;5.87;;
2748;SDS011;1382;52.142;11.618;2023-06-01T02:57:36;7.40;;;5.23;;
2748;SDS011;1382;52.142;11.618;2023-06-01T03:00:03;9.83;;;5.30;;
2748;SDS011;1382;52.142;11.618;2023-06-01T03:02:31;7.47;;;5.23;;
2748;SDS011;1382;52.142;11.618;2023-06-01T03:04:58;10.83;;;4.90;;
2748;SDS011;1382;52.142;11.618;2023-06-01T03:07:24;10.20;;;5.27;;
2748;SDS011;1382;52.142;11.618;2023-06-01T03:09:52;7.80;;;4.43;;
2748;SDS011;1382;52.142;11.618;2023-06-01T03:12:19;15.40;;;5.47;;
2748;SDS011;1382;52.142;11.618;2023-06-01T03:14:46;11.73;;;6.77;;
2748;SDS011;1382;52.142;11.618;2023-06-01T03:17:13;7.73;;;5.37;;
2748;SDS011;1382;52.142;11.618;2023-06-01T03:19:39;11.43;;;5.90;;
2748;SDS011;1382;52.142;11.618;2023-06-01T03:22:06;14.27;;;7.40;;
2748;SDS011;1382;52.142;11.618;2023-06-01T03:24:33;13.10;;;6.77;;
2748;SDS011;1382;52.142;11.618;2023-06-01T03:27:01;11.67;;;6.10;;
2748;SDS011;1382;52.142;11.618;2023-06-01T03:29:28;12.00;;;6.33;;
2748;SDS011;1382;52.142;11.618;2023-06-01T03:31:55;21.93;;;11.77;;
2748;SDS011;1382;52.142;11.618;2023-06-01T03:34:21;13.10;;;7.13;;
2748;SDS011;1382;52.142;11.618;2023-06-01T03:36:48;9.20;;;6.37;;
2748;SDS011;1382;52.142;11.618;2023-06-01T03:39:15;12.50;;;8.73;;
2748;SDS011;1382;52.142;11.618;2023-06-01T03:41:42;17.00;;;11.57;;
2748;SDS011;1382;52.142;11.618;2023-06-01T03:44:10;13.00;;;9.67;;
2748;SDS011;1382;52.142;11.618;2023-06-01T03:46:37;12.47;;;10.50;;
2748;SDS011;1382;52.142;11.618;2023-06-01T03:49:03;15.60;;;12.30;;
2748;SDS011;1382;52.142;11.618;2023-06-01T03:51:30;20.83;;;10.30;;
2748;SDS011;1382;52.142;11.618;2023-06-01T03:53:58;11.93;;;8.87;;
2748;SDS011;1382;52.142;11.618;2023-06-01T03:56:26;15.87;;;9.87;;
2748;SDS011;1382;52.142;11.618;2023-06-01T03:58:53;14.53;;;10.30;;
2748;SDS011;1382;52.142;11.618;2023-06-01T04:01:21;13.07;;;9.37;;
2748;SDS011;1382;52.142;11.618;2023-06-01T04:03:49;15.73;;;9.90;;
2748;SDS011;1382;52.142;11.618;2023-06-01T04:06:16;17.40;;;9.57;;
2748;SDS011;1382;52.142;11.618;2023-06-01T04:08:43;15.37;;;9.73;;
2748;SDS011;1382;52.142;11.618;2023-06-01T04:11:10;12.70;;;8.70;;
2748;SDS011;1382;52.142;11.618;2023-06-01T04:13:36;19.63;;;9.80;;
2748;SDS011;1382;52.142;11.618;2023-06-01T04:16:03;11.50;;;8.30;;
2748;SDS011;1382;52.142;11.618;2023-06-01T04:18:32;15.27;;;9.13;;
2748;SDS011;1382;52.142;11.618;2023-06-01T04:20:59;12.33;;;8.00;;
2748;SDS011;1382;52.142;11.618;2023-06-01T04:23:26;16.50;;;8.23;;
2748;SDS011;1382;52.142;11.618;2023-06-01T04:25:53;15.57;;;7.53;;
2748;SDS011;1382;52.142;11.618;2023-06-01T04:28:19;11.80;;;5.90;;
2748;SDS011;1382;52.142;11.618;2023-06-01T04:30:46;10.87;;;6.47;;
2748;SDS011;1382;52.142;11.618;2023-06-01T04:33:13;12.10;;;7.13;;
2748;SDS011;1382;52.142;11.618;2023-06-01T04:35:41;14.07;;;7.30;;
2748;SDS011;1382;52.142;11.618;2023-06-01T04:38:08;10.50;;;7.10;;
2748;SDS011;1382;52.142;11.618;2023-06-01T04:40:35;11.60;;;7.20;;
2748;SDS011;1382;52.142;11.618;2023-06-01T04:43:02;11.37;;;6.77;;
2748;SDS011;1382;52.142;11.618;2023-06-01T04:45:28;18.07;;;6.40;;
2748;SDS011;1382;52.142;11.618;2023-06-01T04:47:56;11.10;;;6.60;;
2748;SDS011;1382;52.142;11.618;2023-06-01T04:50:23;16.50;;;6.77;;
2748;SDS011;1382;52.142;11.618;2023-06-01T04:52:51;10.80;;;6.57;;
2748;SDS011;1382;52.142;11.618;2023-06-01T04:55:18;11.70;;;7.20;;
2748;SDS011;1382;52.142;11.618;2023-06-01T04:57:44;11.67;;;7.10;;
2748;SDS011;1382;52.142;11.618;2023-06-01T05:00:11;21.67;;;9.00;;
2748;SDS011;1382;52.142;11.618;2023-06-01T05:02:41;10.50;;;6.47;;
2748;SDS011;1382;52.142;11.618;2023-06-01T05:05:08;10.23;;;7.40;;
2748;SDS011;1382;52.142;11.618;2023-06-01T05:07:35;12.13;;;7.87;;
2748;SDS011;1382;52.142;11.618;2023-06-01T05:10:04;14.93;;;7.87;;
2748;SDS011;1382;52.142;11.618;2023-06-01T05:12:33;14.47;;;6.93;;
2748;SDS011;1382;52.142;11.618;2023-06-01T05:15:00;9.07;;;7.07;;
2748;SDS011;1382;52.142;11.618;2023-06-01T05:17:28;12.13;;;6.77;;
2748;SDS011;1382;52.142;11.618;2023-06-01T05:19:55;12.00;;;6.97;;
2748;SDS011;1382;52.142;11.618;2023-06-01T05:22:21;13.17;;;8.13;;
2748;SDS011;1382;52.142;11.618;2023-06-01T05:24:48;13.93;;;7.67;;
2748;SDS011;1382;52.142;11.618;2023-06-01T05:27:16;12.47;;;7.30;;
2748;SDS011;1382;52.142;11.618;2023-06-01T05:29:43;13.60;;;7.13;;
2748;SDS011;1382;52.142;11.618;2023-06-01T05:32:10;12.63;;;8.43;;
2748;SDS011;1382;52.142;11.618;2023-06-01T05:34:37;9.30;;;7.10;;
2748;SDS011;1382;52.142;11.618;2023-06-01T05:37:04;14.03;;;6.77;;
2748;SDS011;1382;52.142;11.618;2023-06-01T05:39:30;9.70;;;6.00;;
2748;SDS011;1382;52.142;11.618;2023-06-01T05:41:57;12.77;;;7.37;;
2748;SDS011;1382;52.142;11.618;2023-06-01T05:44:25;13.00;;;8.00;;
2748;SDS011;1382;52.142;11.618;2023-06-01T05:46:52;15.67;;;8.50;;
2748;SDS011;1382;52.142;11.618;2023-06-01T05:49:19;14.60;;;7.53;;
2748;SDS011;1382;52.142;11.618;2023-06-01T05:51:46;11.80;;;7.83;;
2748;SDS011;1382;52.142;11.618;2023-06-01T05:54:12;12.57;;;8.03;;
2748;SDS011;1382;52.142;11.618;2023-06-01T05:56:39;19.60;;;7.77;;
2748;SDS011;1382;52.142;11.618;2023-06-01T05:59:06;18.60;;;8.37;;
2748;SDS011;1382;52.142;11.618;2023-06-01T06:01:34;16.23;;;8.47;;
2748;SDS011;1382;52.142;11.618;2023-06-01T06:04:01;14.50;;;8.37;;
2748;SDS011;1382;52.142;11.618;2023-06-01T06:06:28;14.33;;;7.97;;
2748;SDS011;1382;52.142;11.618;2023-06-01T06:08:54;17.27;;;9.80;;
2748;SDS011;1382;52.142;11.618;2023-06-01T06:11:21;15.90;;;9.60;;
2748;SDS011;1382;52.142;11.618;2023-06-01T06:13:48;13.63;;;8.20;;
2748;SDS011;1382;52.142;11.618;2023-06-01T06:16:15;16.63;;;6.97;;
2748;SDS011;1382;52.142;11.618;2023-06-01T06:18:43;16.03;;;8.80;;
2748;SDS011;1382;52.142;11.618;2023-06-01T06:21:10;10.23;;;8.00;;
2748;SDS011;1382;52.142;11.618;2023-06-01T06:23:37;12.60;;;7.80;;
2748;SDS011;1382;52.142;11.618;2023-06-01T06:26:03;12.30;;;7.47;;
2748;SDS011;1382;52.142;11.618;2023-06-01T06:28:30;16.13;;;8.20;;
2748;SDS011;1382;52.142;11.618;2023-06-01T06:30:57;13.83;;;7.70;;
2748;SDS011;1382;52.142;11.618;2023-06-01T06:33:25;17.17;;;8.93;;
2748;SDS011;1382;52.142;11.618;2023-06-01T06:35:53;13.33;;;9.10;;
2748;SDS011;1382;52.142;11.618;2023-06-01T06:38:20;12.43;;;7.87;;
2748;SDS011;1382;52.142;11.618;2023-06-01T06:40:47;10.90;;;7.60;;
2748;SDS011;1382;52.142;11.618;2023-06-01T06:43:14;9.80;;;8.23;;
2748;SDS011;1382;52.142;11.618;2023-06-01T06:45:41;13.27;;;7.47;;
2748;SDS011;1382;52.142;11.618;2023-06-01T06:48:07;16.70;;;9.17;;
2748;SDS011;1382;52.142;11.618;2023-06-01T06:50:34;14.50;;;8.43;;
2748;SDS011;1382;52.142;11.618;2023-06-01T06:53:02;13.63;;;7.70;;
2748;SDS011;1382;52.142;11.618;2023-06-01T06:55:29;14.07;;;7.40;;
2748;SDS011;1382;52.142;11.618;2023-06-01T06:57:56;11.30;;;7.67;;
2748;SDS011;1382;52.142;11.618;2023-06-01T07:00:23;11.23;;;7.67;;
2748;SDS011;1382;52.142;11.618;2023-06-01T07:02:50;13.63;;;8.13;;
2748;SDS011;1382;52.142;11.618;2023-06-01T07:05:17;11.30;;;7.67;;
2748;SDS011;1382;52.142;11.618;2023-06-01T07:07:43;11.93;;;6.90;;
2748;SDS011;1382;52.142;11.618;2023-06-01T07:10:12;21.37;;;7.37;;
2748;SDS011;1382;52.142;11.618;2023-06-01T07:12:38;10.03;;;7.67;;
2748;SDS011;1382;52.142;11.618;2023-06-01T07:15:06;13.67;;;7.60;;
2748;SDS011;1382;52.142;11.618;2023-06-01T07:17:33;12.93;;;9.60;;
2748;SDS011;1382;52.142;11.618;2023-06-01T07:20:01;18.60;;;8.23;;
2748;SDS011;1382;52.142;11.618;2023-06-01T07:22:29;11.10;;;6.90;;
2748;SDS011;1382;52.142;11.618;2023-06-01T07:24:55;11.37;;;7.63;;
2748;SDS011;1382;52.142;11.618;2023-06-01T07:27:24;12.53;;;8.10;;
2748;SDS011;1382;52.142;11.618;2023-06-01T07:29:50;15.80;;;7.57;;
2748;SDS011;1382;52.142;11.618;2023-06-01T07:32:17;15.37;;;6.93;;
2748;SDS011;1382;52.142;11.618;2023-06-01T07:34:44;12.47;;;7.93;;
2748;SDS011;1382;52.142;11.618;2023-06-01T07:37:11;12.20;;;6.43;;
2748;SDS011;1382;52.142;11.618;2023-06-01T07:39:43;14.13;;;7.33;;
2748;SDS011;1382;52.142;11.618;2023-06-01T07:42:10;11.87;;;6.60;;
2748;SDS011;1382;52.142;11.618;2023-06-01T07:44:38;13.10;;;6.93;;
2748;SDS011;1382;52.142;11.618;2023-06-01T07:47:05;10.77;;;6.80;;
2748;SDS011;1382;52.142;11.618;2023-06-01T07:49:32;12.60;;;6.70;;
2748;SDS011;1382;52.142;11.618;2023-06-01T07:51:59;9.43;;;6.03;;
2748;SDS011;1382;52.142;11.618;2023-06-01T07:54:26;10.90;;;6.10;;
2748;SDS011;1382;52.142;11.618;2023-06-01T07:56:53;11.33;;;7.80;;
2748;SDS011;1382;52.142;11.618;2023-06-01T07:59:19;11.10;;;7.47;;
2748;SDS011;1382;52.142;11.618;2023-06-01T08:01:48;12.57;;;6.50;;
2748;SDS011;1382;52.142;11.618;2023-06-01T08:04:15;13.17;;;7.10;;
2748;SDS011;1382;52.142;11.618;2023-06-01T08:06:42;11.80;;;6.53;;
2748;SDS011;1382;52.142;11.618;2023-06-01T08:09:08;12.17;;;6.53;;
2748;SDS011;1382;52.142;11.618;2023-06-01T08:11:35;12.53;;;6.13;;
2748;SDS011;1382;52.142;11.618;2023-06-01T08:14:02;8.57;;;7.00;;
2748;SDS011;1382;52.142;11.618;2023-06-01T08:16:29;10.00;;;6.37;;
2748;SDS011;1382;52.142;11.618;2023-06-01T08:18:57;9.47;;;6.13;;
2748;SDS011;1382;52.142;11.618;2023-06-01T08:21:24;8.10;;;6.13;;
2748;SDS011;1382;52.142;11.618;2023-06-01T08:23:52;10.27;;;6.73;;
2748;SDS011;1382;52.142;11.618;2023-06-01T08:26:19;13.03;;;6.50;;
2748;SDS011;1382;52.142;11.618;2023-06-01T08:28:46;8.13;;;5.57;;
2748;SDS011;1382;52.142;11.618;2023-06-01T08:31:13;9.43;;;6.57;;
2748;SDS011;1382;52.142;11.618;2023-06-01T08:33:40;10.43;;;6.80;;
2748;SDS011;1382;52.142;11.618;2023-06-01T08:36:08;13.10;;;6.37;;
2748;SDS011;1382;52.142;11.618;2023-06-01T08:38:35;9.10;;;5.43;;
2748;SDS011;1382;52.142;11.618;2023-06-01T08:41:02;11.37;;;6.20;;
2748;SDS011;1382;52.142;11.618;2023-06-01T08:43:34;10.23;;;6.53;;
2748;SDS011;1382;52.142;11.618;2023-06-01T08:46:02;11.07;;;6.37;;
2748;SDS011;1382;52.142;11.618;2023-06-01T08:48:30;9.03;;;6.67;;
2748;SDS011;1382;52.142;11.618;2023-06-01T08:50:58;10.43;;;6.83;;
2748;SDS011;1382;52.142;11.618;2023-06-01T08:53:28;10.20;;;6.50;;
2748;SDS011;1382;52.142;11.618;2023-06-01T08:55:55;9.73;;;5.40;;
2748;SDS011;1382;52.142;11.618;2023-06-01T08:58:22;9.70;;;6.13;;
2748;SDS011;1382;52.142;11.618;2023-06-01T09:00:51;9.00;;;5.63;;
2748;SDS011;1382;52.142;11.618;2023-06-01T09:03:19;10.47;;;6.23;;
2748;SDS011;1382;52.142;11.618;2023-06-01T09:05:46;10.40;;;6.00;;
2748;SDS011;1382;52.142;11.618;2023-06-01T09:08:13;9.13;;;6.67;;
2748;SDS011;1382;52.142;11.618;2023-06-01T09:10:41;12.90;;;5.50;;
2748;SDS011;1382;52.142;11.618;2023-06-01T09:13:08;11.40;;;5.57;;
2748;SDS011;1382;52.142;11.618;2023-06-01T09:15:35;9.20;;;6.40;;
2748;SDS011;1382;52.142;11.618;2023-06-01T09:18:16;10.23;;;6.20;;
2748;SDS011;1382;52.142;11.618;2023-06-01T09:20:43;11.07;;;5.67;;
2748;SDS011;1382;52.142;11.618;2023-06-01T09:23:10;5.83;;;5.23;;
2748;SDS011;1382;52.142;11.618;2023-06-01T09:25:37;9.07;;;5.60;;
2748;SDS011;1382;52.142;11.618;2023-06-01T09:28:05;12.30;;;6.23;;
2748;SDS011;1382;52.142;11.618;2023-06-01T09:30:39;8.90;;;6.00;;
2748;SDS011;1382;52.142;11.618;2023-06-01T09:33:09;6.33;;;4.83;;
2748;SDS011;1382;52.142;11.618;2023-06-01T09:35:37;12.13;;;5.70;;
2748;SDS011;1382;52.142;11.618;2023-06-01T09:38:08;9.77;;;6.03;;
2748;SDS011;1382;52.142;11.618;2023-06-01T09:40:36;9.60;;;4.90;;
2748;SDS011;1382;52.142;11.618;2023-06-01T09:43:19;7.70;;;5.67;;
2748;SDS011;1382;52.142;11.618;2023-06-01T09:45:49;9.87;;;5.20;;
2748;SDS011;1382;52.142;11.618;2023-06-01T09:48:30;8.77;;;5.93;;
2748;SDS011;1382;52.142;11.618;2023-06-01T09:50:57;6.63;;;5.23;;
2748;SDS011;1382;52.142;11.618;2023-06-01T09:53:27;9.57;;;5.17;;
2748;SDS011;1382;52.142;11.618;2023-06-01T09:55:57;13.43;;;5.43;;
2748;SDS011;1382;52.142;11.618;2023-06-01T09:58:27;8.23;;;4.77;;
2748;SDS011;1382;52.142;11.618;2023-06-01T10:00:54;7.80;;;4.93;;
2748;SDS011;1382;52.142;11.618;2023-06-01T10:03:24;9.87;;;5.43;;
2748;SDS011;1382;52.142;11.618;2023-06-01T10:05:52;9.80;;;5.33;;
2748;SDS011;1382;52.142;11.618;2023-06-01T10:08:20;9.57;;;4.63;;
2748;SDS011;1382;52.142;11.618;2023-06-01T10:10:49;8.63;;;5.23;;
2748;SDS011;1382;52.142;11.618;2023-06-01T10:13:16;7.30;;;4.80;;
2748;SDS011;1382;52.142;11.618;2023-06-01T10:15:44;9.73;;;4.70;;
2748;SDS011;1382;52.142;11.618;2023-06-01T10:18:12;8.77;;;5.43;;
2748;SDS011;1382;52.142;11.618;2023-06-01T10:20:41;9.50;;;4.83;;
2748;SDS011;1382;52.142;11.618;2023-06-01T10:23:09;7.60;;;5.17;;
2748;SDS011;1382;52.142;11.618;2023-06-01T10:25:55;9.20;;;4.77;;
2748;SDS011;1382;52.142;11.618;2023-06-01T10:28:22;7.37;;;4.30;;
2748;SDS011;1382;52.142;11.618;2023-06-01T10:33:58;11.43;;;4.67;;
2748;SDS011;1382;52.142;11.618;2023-06-01T10:39:26;8.67;;;4.83;;
2748;SDS011;1382;52.142;11.618;2023-06-01T10:41:54;12.10;;;6.10;;
2748;SDS011;1382;52.142;11.618;2023-06-01T10:50:11;7.93;;;5.13;;
2748;SDS011;1382;52.142;11.618;2023-06-01T10:52:43;6.87;;;4.60;;
2748;SDS011;1382;52.142;11.618;2023-06-01T10:55:23;10.20;;;5.63;;
2748;SDS011;1382;52.142;11.618;2023-06-01T11:00:46;6.37;;;4.23;;
2748;SDS011;1382;52.142;11.618;2023-06-01T11:03:14;6.80;;;4.90;;
2748;SDS011;1382;52.142;11.618;2023-06-01T11:05:46;13.70;;;5.03;;
2748;SDS011;1382;52.142;11.618;2023-06-01T11:11:21;10.20;;;5.50;;
2748;SDS011;1382;52.142;11.618;2023-06-01T11:14:05;9.80;;;5.10;;
2748;SDS011;1382;52.142;11.618;2023-06-01T11:16:32;9.10;;;4.90;;
2748;SDS011;1382;52.142;11.618;2023-06-01T11:19:00;10.80;;;4.53;;
2748;SDS011;1382;52.142;11.618;2023-06-01T11:21:30;12.30;;;5.50;;
2748;SDS011;1382;52.142;11.618;2023-06-01T11:23:58;15.10;;;5.63;;
2748;SDS011;1382;52.142;11.618;2023-06-01T11:26:28;8.10;;;5.00;;
2748;SDS011;1382;52.142;11.618;2023-06-01T11:29:10;8.97;;;4.00;;
2748;SDS011;1382;52.142;11.618;2023-06-01T11:31:41;12.27;;;5.90;;
2748;SDS011;1382;52.142;11.618;2023-06-01T11:34:10;7.93;;;5.00;;
2748;SDS011;1382;52.142;11.618;2023-06-01T11:36:40;11.97;;;4.73;;
2748;SDS011;1382;52.142;11.618;2023-06-01T11:39:17;7.80;;;4.50;;
2748;SDS011;1382;52.142;11.618;2023-06-01T11:41:47;6.67;;;5.53;;
2748;SDS011;1382;52.142;11.618;2023-06-01T11:44:14;9.50;;;5.00;;
2748;SDS011;1382;52.142;11.618;2023-06-01T11:46:51;9.17;;;4.83;;
2748;SDS011;1382;52.142;11.618;2023-06-01T11:49:19;10.63;;;5.67;;
2748;SDS011;1382;52.142;11.618;2023-06-01T11:51:47;8.97;;;5.10;;
2748;SDS011;1382;52.142;11.618;2023-06-01T11:54:14;12.30;;;5.77;;
2748;SDS011;1382;52.142;11.618;2023-06-01T11:56:41;8.53;;;6.13;;
2748;SDS011;1382;52.142;11.618;2023-06-01T11:59:08;11.73;;;5.50;;
2748;SDS011;1382;52.142;11.618;2023-06-01T12:01:35;6.50;;;5.10;;
2748;SDS011;1382;52.142;11.618;2023-06-01T12:04:02;10.83;;;5.80;;
2748;SDS011;1382;52.142;11.618;2023-06-01T12:06:29;11.30;;;5.67;;
2748;SDS011;1382;52.142;11.618;2023-06-01T12:08:57;8.47;;;5.37;;
2748;SDS011;1382;52.142;11.618;2023-06-01T12:11:25;10.13;;;5.80;;
2748;SDS011;1382;52.142;11.618;2023-06-01T12:13:52;12.00;;;6.53;;
2748;SDS011;1382;52.142;11.618;2023-06-01T12:16:20;11.40;;;5.93;;
2748;SDS011;1382;52.142;11.618;2023-06-01T12:18:48;12.33;;;6.20;;
2748;SDS011;1382;52.142;11.618;2023-06-01T12:21:15;10.27;;;6.00;;
2748;SDS011;1382;52.142;11.618;2023-06-01T12:23:42;8.27;;;5.40;;
2748;SDS011;1382;52.142;11.618;2023-06-01T12:26:10;10.83;;;5.73;;
2748;SDS011;1382;52.142;11.618;2023-06-01T12:28:46;8.10;;;5.90;;
2748;SDS011;1382;52.142;11.618;2023-06-01T12:31:15;11.43;;;5.90;;
2748;SDS011;1382;52.142;11.618;2023-06-01T12:33:42;9.43;;;4.97;;
2748;SDS011;1382;52.142;11.618;2023-06-01T12:36:27;8.63;;;5.70;;
2748;SDS011;1382;52.142;11.618;2023-06-01T12:38:55;6.60;;;5.30;;
2748;SDS011;1382;52.142;11.618;2023-06-01T12:41:25;10.27;;;6.23;;
2748;SDS011;1382;52.142;11.618;2023-06-01T12:43:52;10.53;;;5.87;;
2748;SDS011;1382;52.142;11.618;2023-06-01T12:46:19;7.47;;;5.40;;
2748;SDS011;1382;52.142;11.618;2023-06-01T12:48:48;9.93;;;6.13;;
2748;SDS011;1382;52.142;11.618;2023-06-01T12:51:15;10.23;;;6.00;;
2748;SDS011;1382;52.142;11.618;2023-06-01T12:53:42;8.60;;;5.83;;
2748;SDS011;1382;52.142;11.618;2023-06-01T12:56:10;7.00;;;5.97;;
2748;SDS011;1382;52.142;11.618;2023-06-01T12:58:38;10.37;;;6.20;;
2748;SDS011;1382;52.142;11.618;2023-06-01T13:01:06;9.33;;;5.87;;
2748;SDS011;1382;52.142;11.618;2023-06-01T13:03:33;13.13;;;6.33;;
2748;SDS011;1382;52.142;11.618;2023-06-01T13:06:00;13.47;;;8.07;;
2748;SDS011;1382;52.142;11.618;2023-06-01T13:08:26;11.40;;;6.33;;
2748;SDS011;1382;52.142;11.618;2023-06-01T13:10:53;15.63;;;6.10;;
2748;SDS011;1382;52.142;11.618;2023-06-01T13:13:20;7.20;;;5.13;;
2748;SDS011;1382;52.142;11.618;2023-06-01T13:15:49;10.53;;;6.30;;
2748;SDS011;1382;52.142;11.618;2023-06-01T13:18:15;11.70;;;6.30;;
2748;SDS011;1382;52.142;11.618;2023-06-01T13:20:42;12.30;;;5.77;;
2748;SDS011;1382;52.142;11.618;2023-06-01T13:23:09;14.50;;;7.67;;
2748;SDS011;1382;52.142;11.618;2023-06-01T13:25:36;12.47;;;5.80;;
2748;SDS011;1382;52.142;11.618;2023-06-01T13:28:03;7.67;;;5.60;;
2748;SDS011;1382;52.142;11.618;2023-06-01T13:30:31;6.60;;;4.90;;
2748;SDS011;1382;52.142;11.618;2023-06-01T13:33:02;7.57;;;4.93;;
2748;SDS011;1382;52.142;11.618;2023-06-01T13:35:29;7.17;;;4.93;;
2748;SDS011;1382;52.142;11.618;2023-06-01T13:37:56;10.50;;;4.33;;
2748;SDS011;1382;52.142;11.618;2023-06-01T13:40:23;6.53;;;4.53;;
2748;SDS011;1382;52.142;11.618;2023-06-01T13:42:50;15.63;;;6.70;;
2748;SDS011;1382;52.142;11.618;2023-06-01T13:45:17;7.63;;;5.40;;
2748;SDS011;1382;52.142;11.618;2023-06-01T13:47:44;7.50;;;4.70;;
2748;SDS011;1382;52.142;11.618;2023-06-01T13:50:12;9.80;;;4.77;;
2748;SDS011;1382;52.142;11.618;2023-06-01T13:52:39;11.37;;;5.60;;
2748;SDS011;1382;52.142;11.618;2023-06-01T13:55:07;12.60;;;5.20;;
2748;SDS011;1382;52.142;11.618;2023-06-01T13:57:34;6.67;;;4.40;;
2748;SDS011;1382;52.142;11.618;2023-06-01T14:00:02;7.73;;;4.53;;
2748;SDS011;1382;52.142;11.618;2023-06-01T14:02:30;6.00;;;4.30;;
2748;SDS011;1382;52.142;11.618;2023-06-01T14:04:57;5.43;;;4.10;;
2748;SDS011;1382;52.142;11.618;2023-06-01T14:07:34;11.30;;;5.43;;
2748;SDS011;1382;52.142;11.618;2023-06-01T14:10:01;13.63;;;6.00;;
2748;SDS011;1382;52.142;11.618;2023-06-01T14:12:28;10.20;;;4.80;;
2748;SDS011;1382;52.142;11.618;2023-06-01T14:14:55;11.93;;;6.27;;
2748;SDS011;1382;52.142;11.618;2023-06-01T14:17:22;6.90;;;4.50;;
2748;SDS011;1382;52.142;11.618;2023-06-01T14:19:48;9.50;;;5.27;;
2748;SDS011;1382;52.142;11.618;2023-06-01T14:22:19;8.80;;;5.80;;
2748;SDS011;1382;52.142;11.618;2023-06-01T14:24:47;9.73;;;4.70;;
2748;SDS011;1382;52.142;11.618;2023-06-01T14:27:14;8.30;;;4.70;;
2748;SDS011;1382;52.142;11.618;2023-06-01T14:29:41;6.40;;;4.90;;
2748;SDS011;1382;52.142;11.618;2023-06-01T14:32:09;6.60;;;4.10;;
2748;SDS011;1382;52.142;11.618;2023-06-01T14:34:36;10.17;;;4.30;;
2748;SDS011;1382;52.142;11.618;2023-06-01T14:37:03;7.87;;;4.57;;
2748;SDS011;1382;52.142;11.618;2023-06-01T14:39:30;5.50;;;4.47;;
2748;SDS011;1382;52.142;11.618;2023-06-01T14:41:58;12.70;;;5.20;;
2748;SDS011;1382;52.142;11.618;2023-06-01T14:44:25;9.20;;;5.93;;
2748;SDS011;1382;52.142;11.618;2023-06-01T14:46:52;8.07;;;4.00;;
2748;SDS011;1382;52.142;11.618;2023-06-01T14:49:19;9.10;;;3.80;;
2748;SDS011;1382;52.142;11.618;2023-06-01T14:51:46;7.67;;;3.73;;
2748;SDS011;1382;52.142;11.618;2023-06-01T14:54:12;10.63;;;8.40;;
2748;SDS011;1382;52.142;11.618;2023-06-01T14:56:46;9.63;;;4.47;;
2748;SDS011;1382;52.142;11.618;2023-06-01T14:59:17;6.63;;;4.33;;
2748;SDS011;1382;52.142;11.618;2023-06-01T15:01:44;8.20;;;4.00;;
2748;SDS011;1382;52.142;11.618;2023-06-01T15:04:11;8.57;;;4.30;;
2748;SDS011;1382;52.142;11.618;2023-06-01T15:06:38;8.47;;;4.07;;
2748;SDS011;1382;52.142;11.618;2023-06-01T15:09:05;7.80;;;4.60;;
2748;SDS011;1382;52.142;11.618;2023-06-01T15:11:31;5.90;;;3.67;;
2748;SDS011;1382;52.142;11.618;2023-06-01T15:13:58;8.43;;;4.77;;
2748;SDS011;1382;52.142;11.618;2023-06-01T15:16:26;8.90;;;4.10;;
2748;SDS011;1382;52.142;11.618;2023-06-01T15:18:53;7.40;;;4.10;;